Time;durP1;ratioP1;P1;durP2;ratioP2;P2;SDS_P1;SDS_P2;PMS_P1;PMS_P2;Temp;Humidity;BMP_temperature;BMP_pressure;BME280_temperature;BME280_humidity;BME280_pressure;Samples;Min_cycle;Max_cycle;Signal;HPM_P1;HPM_P2
2022/06/03 00:01:39;;;;;;;;;;;16.00;66.80;;;;;;5108684;28;20086;-73
2022/06/03 00:04:16;;;;;;;;;;;15.90;66.80;;;;;;5104930;28;19911;-73
2022/06/03 00:07:00;;;;;;;;;;;15.90;67.10;;;;;;5102650;28;19919;-73
2022/06/03 00:09:44;;;;;;;;;;;15.90;67.20;;;;;;5105576;28;20018;-73
2022/06/03 00:12:16;;;;;;;;;;;15.90;67.20;;;;;;5103105;28;19923;-73
2022/06/03 00:15:00;;;;;;;;;;;15.80;67.20;;;;;;5085235;28;19912;-72
2022/06/03 00:17:25;;;;;;;;;;;15.80;67.30;;;;;;5099889;28;19927;-72
2022/06/03 00:20:00;;;;;;;;;;;15.80;67.50;;;;;;5110377;28;20363;-73
2022/06/03 00:22:44;;;;;;;;;;;15.70;67.20;;;;;;5107757;27;20012;-73
2022/06/03 00:25:21;;;;;;;;;;;15.70;67.50;;;;;;5114855;28;19985;-73
2022/06/03 00:27:59;;;;;;;;;;;15.70;67.70;;;;;;5102816;28;20001;-72
2022/06/03 00:30:39;;;;;;;;;;;15.60;67.60;;;;;;5112020;28;19944;-73
2022/06/03 00:33:11;;;;;;;;;;;15.70;67.80;;;;;;5121829;28;19911;-72
2022/06/03 00:35:42;;;;;;;;;;;15.60;67.80;;;;;;5114077;28;19916;-73
2022/06/03 00:38:17;;;;;;;;;;;15.60;67.90;;;;;;5102670;28;19943;-73
2022/06/03 00:40:54;;;;;;;;;;;15.50;68.10;;;;;;5105143;28;19957;-73
2022/06/03 00:43:26;;;;;;;;;;;15.50;67.90;;;;;;5102439;28;19911;-73
2022/06/03 00:46:18;;;;;;;;;;;15.50;68.10;;;;;;5104905;28;20004;-73
2022/06/03 00:48:43;;;;;;;;;;;15.50;68.10;;;;;;5078622;28;20052;-73
2022/06/03 00:51:17;;;;;;;;;;;15.40;68.30;;;;;;5105077;28;20439;-73
2022/06/03 00:53:57;;;;;;;;;;;15.40;68.40;;;;;;5101326;28;19912;-73
2022/06/03 00:56:52;;;;;;;;;;;15.40;68.20;;;;;;5114192;27;19937;-73
2022/06/03 00:59:32;;;;;;;;;;;15.30;68.50;;;;;;5061112;27;19916;-73
2022/06/03 01:02:13;;;;;;;;;;;15.40;68.40;;;;;;5127880;27;19911;-73
2022/06/03 01:04:54;;;;;;;;;;;15.30;68.70;;;;;;5107535;27;19930;-72
2022/06/03 01:07:19;;;;;;;;;;;15.30;68.60;;;;;;5102613;28;20291;-73
2022/06/03 01:09:54;;;;;;;;;;;15.20;68.80;;;;;;5105573;28;19945;-73
2022/06/03 01:12:19;;;;;;;;;;;15.20;68.80;;;;;;5089805;27;19912;-73
2022/06/03 01:14:48;;;;;;;;;;;15.20;68.90;;;;;;5108058;27;19922;-73
2022/06/03 01:17:22;;;;;;;;;;;15.20;69.00;;;;;;5108270;28;19908;-73
2022/06/03 01:19:51;;;;;;;;;;;15.10;68.80;;;;;;5110211;27;19920;-73
2022/06/03 01:22:19;;;;;;;;;;;15.10;69.30;;;;;;5124432;27;19934;-73
2022/06/03 01:24:48;;;;;;;;;;;15.10;69.00;;;;;;5108685;27;20522;-73
2022/06/03 01:27:52;;;;;;;;;;;15.10;69.20;;;;;;5107986;28;19912;-73
2022/06/03 01:30:17;;;;;;;;;;;15.10;69.10;;;;;;5061859;28;20527;-73
2022/06/03 01:33:01;;;;;;;;;;;15.00;69.10;;;;;;5064428;28;19998;-73
2022/06/03 01:35:42;;;;;;;;;;;15.00;69.40;;;;;;5074871;28;19923;-73
2022/06/03 01:38:16;;;;;;;;;;;15.00;69.40;;;;;;5100000;28;19919;-73
2022/06/03 01:40:44;;;;;;;;;;;14.90;69.50;;;;;;5105085;27;19916;-73
2022/06/03 01:43:10;;;;;;;;;;;15.00;69.70;;;;;;5107604;28;19912;-73
2022/06/03 01:45:35;;;;;;;;;;;14.90;69.70;;;;;;5105020;28;19953;-73
2022/06/03 01:48:01;;;;;;;;;;;14.90;69.60;;;;;;5107385;28;19970;-73
2022/06/03 01:50:26;;;;;;;;;;;14.90;69.50;;;;;;5105025;28;19920;-73
2022/06/03 01:53:10;;;;;;;;;;;14.90;69.90;;;;;;5107240;28;19912;-73
2022/06/03 01:55:46;;;;;;;;;;;14.90;69.70;;;;;;5105148;28;20390;-73
2022/06/03 01:58:11;;;;;;;;;;;14.90;69.90;;;;;;5106153;28;19908;-73
2022/06/03 02:00:38;;;;;;;;;;;14.80;69.90;;;;;;5104710;28;19923;-73
2022/06/03 02:03:17;;;;;;;;;;;14.80;70.00;;;;;;5107304;28;19916;-73
2022/06/03 02:05:42;;;;;;;;;;;14.70;70.10;;;;;;5104682;28;20283;-73
2022/06/03 02:08:19;;;;;;;;;;;14.70;70.80;;;;;;5107306;28;19915;-73
2022/06/03 02:11:03;;;;;;;;;;;14.80;70.30;;;;;;5104530;27;20391;-73
2022/06/03 02:13:47;;;;;;;;;;;14.70;70.40;;;;;;5117862;27;20665;-73
2022/06/03 02:16:28;;;;;;;;;;;14.70;70.20;;;;;;5114654;27;20642;-72
2022/06/03 02:19:02;;;;;;;;;;;14.70;70.50;;;;;;5107096;28;20679;-73
2022/06/03 02:21:46;;;;;;;;;;;14.60;70.30;;;;;;5109393;27;20022;-74
2022/06/03 02:24:31;;;;;;;;;;;14.60;70.50;;;;;;5105476;28;19923;-73
2022/06/03 02:27:21;;;;;;;;;;;14.60;70.40;;;;;;5096603;28;19953;-73
2022/06/03 02:32:55;;;;;;;;;;;14.60;71.00;;;;;;5103965;28;19968;-73
2022/06/03 02:35:40;;;;;;;;;;;14.50;70.70;;;;;;5105900;28;19969;-74
2022/06/03 02:38:08;;;;;;;;;;;14.50;71.50;;;;;;5104170;28;20401;-73
2022/06/03 02:40:39;;;;;;;;;;;14.50;71.20;;;;;;5106759;28;20529;-73
2022/06/03 02:43:05;;;;;;;;;;;14.40;71.00;;;;;;5103749;27;19916;-73
2022/06/03 02:45:36;;;;;;;;;;;14.40;70.90;;;;;;5106677;28;19919;-73
2022/06/03 02:48:11;;;;;;;;;;;14.40;71.20;;;;;;5103942;28;19922;-73
2022/06/03 02:50:48;;;;;;;;;;;14.30;71.60;;;;;;5106408;28;19968;-73
2022/06/03 02:53:31;;;;;;;;;;;14.40;71.60;;;;;;5103712;28;19915;-73
2022/06/03 02:56:12;;;;;;;;;;;14.40;72.20;;;;;;5091824;28;19912;-73
2022/06/03 02:58:49;;;;;;;;;;;14.30;71.40;;;;;;5100411;28;20400;-73
2022/06/03 03:01:33;;;;;;;;;;;14.30;71.60;;;;;;5106346;28;20367;-73
2022/06/03 03:04:08;;;;;;;;;;;14.30;72.30;;;;;;5103724;28;19920;-73
2022/06/03 03:06:41;;;;;;;;;;;14.20;72.30;;;;;;5104608;28;19912;-73
2022/06/03 03:09:09;;;;;;;;;;;14.20;71.90;;;;;;5105313;27;19922;-73
2022/06/03 03:11:47;;;;;;;;;;;14.20;71.60;;;;;;5106137;28;19916;-73
2022/06/03 03:14:12;;;;;;;;;;;14.20;72.10;;;;;;5103476;28;20010;-72
2022/06/03 03:16:44;;;;;;;;;;;14.10;72.10;;;;;;5103812;28;20030;-73
2022/06/03 03:19:15;;;;;;;;;;;14.10;72.50;;;;;;5097468;28;19916;-73
2022/06/03 03:21:59;;;;;;;;;;;14.10;73.50;;;;;;5085391;28;19912;-73
2022/06/03 03:24:43;;;;;;;;;;;14.10;73.60;;;;;;5106776;27;19951;-73
2022/06/03 03:27:15;;;;;;;;;;;14.10;73.70;;;;;;5105828;28;19918;-73
2022/06/03 03:29:50;;;;;;;;;;;14.00;73.70;;;;;;5103186;28;19973;-73
2022/06/03 03:32:22;;;;;;;;;;;14.00;73.80;;;;;;5106063;28;19919;-73
2022/06/03 03:34:57;;;;;;;;;;;14.00;72.90;;;;;;5103114;28;19920;-73
2022/06/03 03:37:31;;;;;;;;;;;14.00;73.10;;;;;;5105207;28;20737;-73
2022/06/03 03:40:03;;;;;;;;;;;14.00;73.80;;;;;;5097024;28;20003;-73
2022/06/03 03:42:34;;;;;;;;;;;14.00;73.80;;;;;;5104137;28;19911;-73
2022/06/03 03:45:06;;;;;;;;;;;14.00;73.50;;;;;;5103135;28;19916;-73
2022/06/03 03:47:50;;;;;;;;;;;13.90;73.80;;;;;;5105299;28;20323;-73
2022/06/03 03:50:26;;;;;;;;;;;13.90;73.80;;;;;;5103092;28;19927;-73
2022/06/03 03:52:51;;;;;;;;;;;14.00;73.90;;;;;;5105526;28;19915;-73
2022/06/03 03:55:42;;;;;;;;;;;13.90;73.80;;;;;;5103028;28;19916;-73
2022/06/03 03:58:26;;;;;;;;;;;13.90;73.90;;;;;;5104458;28;20515;-73
2022/06/03 04:01:02;;;;;;;;;;;13.90;73.40;;;;;;5103160;28;20413;-73
2022/06/03 04:03:53;;;;;;;;;;;13.90;73.40;;;;;;5105622;28;20610;-73
2022/06/03 04:06:45;;;;;;;;;;;13.80;73.80;;;;;;5099434;28;19916;-73
2022/06/03 04:09:13;;;;;;;;;;;13.90;73.80;;;;;;5081069;28;19939;-73
2022/06/03 04:11:42;;;;;;;;;;;13.80;73.20;;;;;;5102820;28;20685;-73
2022/06/03 04:14:26;;;;;;;;;;;13.80;73.10;;;;;;5106863;28;19919;-73
2022/06/03 04:17:06;;;;;;;;;;;13.80;73.40;;;;;;5102604;28;20276;-73
2022/06/03 04:19:50;;;;;;;;;;;13.80;73.10;;;;;;5107515;28;19912;-73
2022/06/03 04:22:34;;;;;;;;;;;13.80;74.00;;;;;;5103824;28;20427;-73
2022/06/03 04:25:13;;;;;;;;;;;13.80;73.20;;;;;;5115118;28;19918;-73
2022/06/03 04:27:58;;;;;;;;;;;13.80;73.20;;;;;;5103708;28;19916;-73
2022/06/03 04:30:26;;;;;;;;;;;13.80;73.20;;;;;;5109929;27;19915;-73
2022/06/03 04:33:07;;;;;;;;;;;13.80;73.30;;;;;;5109125;28;19934;-73
2022/06/03 04:35:45;;;;;;;;;;;13.80;73.30;;;;;;5106006;28;19919;-73
2022/06/03 04:38:10;;;;;;;;;;;13.80;73.10;;;;;;5109042;28;19982;-73
2022/06/03 04:40:39;;;;;;;;;;;13.70;73.30;;;;;;5108921;27;20364;-73
2022/06/03 04:43:23;;;;;;;;;;;13.80;73.20;;;;;;5107941;28;19916;-73
2022/06/03 04:45:48;;;;;;;;;;;13.70;73.10;;;;;;5108630;28;19923;-73
2022/06/03 04:48:14;;;;;;;;;;;13.70;73.20;;;;;;5105995;28;20368;-73
2022/06/03 04:50:58;;;;;;;;;;;13.70;73.10;;;;;;5108726;28;19924;-73
2022/06/03 04:53:23;;;;;;;;;;;13.70;73.10;;;;;;5105980;28;19916;-73
2022/06/03 04:55:49;;;;;;;;;;;13.80;73.30;;;;;;5095091;28;19912;-73
2022/06/03 04:58:33;;;;;;;;;;;13.80;73.20;;;;;;5102894;28;19980;-73
2022/06/03 05:01:10;;;;;;;;;;;13.80;73.20;;;;;;5107766;28;19922;-73
2022/06/03 05:03:36;;;;;;;;;;;13.70;73.10;;;;;;5105511;28;19994;-73
2022/06/03 05:06:10;;;;;;;;;;;13.70;73.20;;;;;;5108076;28;20060;-73
2022/06/03 05:08:55;;;;;;;;;;;13.70;73.10;;;;;;5103374;28;20064;-73
2022/06/03 05:11:32;;;;;;;;;;;13.70;73.10;;;;;;5090850;28;19922;-73
2022/06/03 05:14:12;;;;;;;;;;;13.70;73.20;;;;;;5106941;27;20480;-73
2022/06/03 05:16:58;;;;;;;;;;;13.70;73.20;;;;;;5108179;28;20070;-73
2022/06/03 05:19:30;;;;;;;;;;;13.70;73.20;;;;;;5106998;27;20024;-73
2022/06/03 05:22:03;;;;;;;;;;;13.70;73.30;;;;;;5126350;27;19912;-73
2022/06/03 05:24:47;;;;;;;;;;;13.70;73.20;;;;;;5114327;27;19916;-73
2022/06/03 05:27:27;;;;;;;;;;;13.70;73.20;;;;;;5108000;28;19919;-73
2022/06/03 05:30:11;;;;;;;;;;;13.70;73.20;;;;;;5107369;28;19924;-73
2022/06/03 05:32:39;;;;;;;;;;;13.70;73.20;;;;;;5108286;28;19908;-73
2022/06/03 05:35:23;;;;;;;;;;;13.80;73.30;;;;;;5106939;28;20520;-73
2022/06/03 05:37:55;;;;;;;;;;;13.80;73.20;;;;;;5106448;28;19916;-73
2022/06/03 05:40:23;;;;;;;;;;;13.80;73.30;;;;;;5106899;28;20397;-73
2022/06/03 05:42:55;;;;;;;;;;;13.80;73.30;;;;;;5107520;28;20378;-73
2022/06/03 05:45:44;;;;;;;;;;;13.80;73.30;;;;;;5104602;28;19915;-74
2022/06/03 05:48:28;;;;;;;;;;;13.80;73.40;;;;;;5107446;28;20051;-74
2022/06/03 05:51:20;;;;;;;;;;;13.80;73.50;;;;;;5106902;28;20006;-73
2022/06/03 05:53:56;;;;;;;;;;;13.80;73.40;;;;;;5086455;28;19923;-73
2022/06/03 05:56:22;;;;;;;;;;;13.80;73.30;;;;;;5106405;28;19912;-73
2022/06/03 05:58:55;;;;;;;;;;;13.80;73.30;;;;;;5103956;27;19912;-74
2022/06/03 06:01:41;;;;;;;;;;;13.90;73.50;;;;;;5107146;28;19912;-73
2022/06/03 06:04:16;;;;;;;;;;;13.80;73.50;;;;;;5105051;28;20010;-73
2022/06/03 06:06:44;;;;;;;;;;;13.90;73.50;;;;;;5107011;28;19915;-73
2022/06/03 06:09:13;;;;;;;;;;;13.90;73.50;;;;;;5104651;28;19919;-73
2022/06/03 06:11:50;;;;;;;;;;;13.90;73.50;;;;;;5106927;28;19923;-73
2022/06/03 06:14:31;;;;;;;;;;;13.90;73.60;;;;;;5122845;27;19934;-73
2022/06/03 06:17:00;;;;;;;;;;;13.90;73.50;;;;;;5106996;28;19958;-73
2022/06/03 06:19:35;;;;;;;;;;;13.90;73.50;;;;;;5097928;27;20011;-73
2022/06/03 06:22:21;;;;;;;;;;;13.90;73.50;;;;;;5107016;28;19923;-73
2022/06/03 06:25:05;;;;;;;;;;;13.90;73.40;;;;;;5113139;27;19911;-73
2022/06/03 06:27:33;;;;;;;;;;;14.00;73.50;;;;;;5106157;28;19911;-73
2022/06/03 06:30:05;;;;;;;;;;;14.00;73.50;;;;;;5104728;27;19919;-73
2022/06/03 06:32:35;;;;;;;;;;;14.00;73.50;;;;;;5106251;28;20098;-73
2022/06/03 06:35:19;;;;;;;;;;;14.00;73.40;;;;;;5106057;28;19908;-73
2022/06/03 06:38:14;;;;;;;;;;;14.00;73.30;;;;;;5089139;28;19916;-73
2022/06/03 06:40:49;;;;;;;;;;;14.00;73.30;;;;;;5094756;28;19912;-73
2022/06/03 06:43:17;;;;;;;;;;;14.00;73.30;;;;;;5106570;28;20516;-73
2022/06/03 06:45:50;;;;;;;;;;;14.10;73.30;;;;;;5103674;28;19912;-73
2022/06/03 06:48:15;;;;;;;;;;;14.10;73.20;;;;;;5106751;28;19977;-73
2022/06/03 06:50:41;;;;;;;;;;;14.10;73.10;;;;;;5103844;28;20511;-73
2022/06/03 06:53:11;;;;;;;;;;;14.20;73.00;;;;;;5105981;28;19916;-73
2022/06/03 06:55:42;;;;;;;;;;;14.20;72.80;;;;;;5094716;28;20365;-73
2022/06/03 06:58:21;;;;;;;;;;;14.20;72.70;;;;;;5103248;28;20329;-73
2022/06/03 07:00:48;;;;;;;;;;;14.20;72.60;;;;;;5106218;28;19920;-73
2022/06/03 07:03:16;;;;;;;;;;;14.20;72.60;;;;;;5103916;28;20026;-73
2022/06/03 07:05:57;;;;;;;;;;;14.20;72.60;;;;;;5104482;28;19976;-73
2022/06/03 07:08:28;;;;;;;;;;;14.20;73.20;;;;;;5112283;27;19989;-73
2022/06/03 07:11:11;;;;;;;;;;;14.30;72.50;;;;;;5104770;28;19926;-73
2022/06/03 07:13:45;;;;;;;;;;;14.30;72.50;;;;;;5115516;27;19949;-73
2022/06/03 07:19:47;;;;;;;;;;;14.30;72.50;;;;;;5126177;27;19922;-73
2022/06/03 07:21:59;;;;;;;;;;;14.30;72.30;;;;;;5103763;28;19961;-73
2022/06/03 07:24:39;;;;;;;;;;;14.30;72.70;;;;;;5106334;27;19915;-73
2022/06/03 07:27:15;;;;;;;;;;;14.40;72.50;;;;;;5103948;28;20738;-73
2022/06/03 07:29:45;;;;;;;;;;;14.40;72.20;;;;;;5105452;28;20311;-73
2022/06/03 07:32:19;;;;;;;;;;;14.40;72.10;;;;;;5104333;28;20288;-73
2022/06/03 07:34:51;;;;;;;;;;;14.50;72.00;;;;;;5105010;28;20380;-73
2022/06/03 07:37:16;;;;;;;;;;;14.50;71.90;;;;;;5105591;28;19911;-75
2022/06/03 07:39:57;;;;;;;;;;;14.50;71.80;;;;;;5102893;28;19915;-73
2022/06/03 07:42:22;;;;;;;;;;;14.60;71.70;;;;;;5105568;28;20315;-73
2022/06/03 07:45:04;;;;;;;;;;;14.70;71.60;;;;;;5103307;28;19927;-73
2022/06/03 07:47:29;;;;;;;;;;;14.70;71.60;;;;;;5105003;28;19918;-73
2022/06/03 07:49:58;;;;;;;;;;;14.70;71.80;;;;;;5103304;28;19919;-73
2022/06/03 07:52:44;;;;;;;;;;;14.70;71.40;;;;;;5105775;28;19939;-73
2022/06/03 07:55:14;;;;;;;;;;;14.70;71.40;;;;;;5103084;28;20386;-73
2022/06/03 07:57:39;;;;;;;;;;;14.80;71.30;;;;;;5104172;28;19947;-73
2022/06/03 08:00:10;;;;;;;;;;;14.80;71.60;;;;;;5117272;28;20019;-73
2022/06/03 08:02:36;;;;;;;;;;;14.90;71.20;;;;;;5127974;27;19918;-73
2022/06/03 08:05:12;;;;;;;;;;;14.90;71.00;;;;;;5114071;27;19920;-73
2022/06/03 08:13:11;;;;;;;;;;;15.00;71.30;;;;;;5117885;27;19999;-73
2022/06/03 08:15:39;;;;;;;;;;;15.00;71.00;;;;;;5112419;27;20334;-73
2022/06/03 08:18:06;;;;;;;;;;;15.10;71.00;;;;;;5109035;28;20427;-73
2022/06/03 08:20:33;;;;;;;;;;;15.10;71.00;;;;;;5109750;27;20030;-74
2022/06/03 08:23:00;;;;;;;;;;;15.10;70.90;;;;;;5130036;27;19912;-73
2022/06/03 08:25:27;;;;;;;;;;;15.20;70.80;;;;;;5106577;27;20004;-73
2022/06/03 08:27:55;;;;;;;;;;;15.20;70.80;;;;;;5109574;28;19916;-73
2022/06/03 08:30:22;;;;;;;;;;;15.20;70.60;;;;;;5112865;27;19995;-73
2022/06/03 08:32:50;;;;;;;;;;;15.30;71.30;;;;;;5128338;27;20014;-73
2022/06/03 08:35:19;;;;;;;;;;;15.30;70.60;;;;;;5121643;27;19918;-73
2022/06/03 08:37:59;;;;;;;;;;;15.30;70.60;;;;;;5109056;28;19912;-73
2022/06/03 08:40:34;;;;;;;;;;;15.40;70.40;;;;;;5106790;28;19916;-73
2022/06/03 08:43:23;;;;;;;;;;;15.40;70.60;;;;;;5107765;28;19921;-74
2022/06/03 08:45:56;;;;;;;;;;;15.50;70.90;;;;;;5100169;27;19923;-73
2022/06/03 08:48:22;;;;;;;;;;;15.60;70.40;;;;;;5113684;27;20301;-74
2022/06/03 08:50:55;;;;;;;;;;;15.60;70.50;;;;;;5106446;28;20606;-74
2022/06/03 08:53:22;;;;;;;;;;;15.60;70.50;;;;;;5108595;28;19911;-73
2022/06/03 08:55:56;;;;;;;;;;;15.70;70.40;;;;;;5105722;27;20003;-74
2022/06/03 08:58:30;;;;;;;;;;;15.70;70.20;;;;;;5108451;28;19919;-73
2022/06/03 09:00:58;;;;;;;;;;;15.80;70.40;;;;;;5106481;27;19912;-74
2022/06/03 09:03:25;;;;;;;;;;;15.80;69.90;;;;;;5108564;28;19912;-74
2022/06/03 09:05:56;;;;;;;;;;;15.90;70.00;;;;;;5106977;28;19999;-74
2022/06/03 09:08:43;;;;;;;;;;;15.90;70.20;;;;;;5107650;28;19912;-74
2022/06/03 09:11:20;;;;;;;;;;;16.00;70.30;;;;;;5106035;27;19916;-74
2022/06/03 09:13:45;;;;;;;;;;;16.10;70.50;;;;;;5120292;27;19964;-74
2022/06/03 09:16:13;;;;;;;;;;;16.10;69.60;;;;;;5128359;27;19919;-74
2022/06/03 09:18:46;;;;;;;;;;;16.20;70.40;;;;;;5100065;27;20544;-74
2022/06/03 09:21:13;;;;;;;;;;;16.30;69.80;;;;;;5119883;27;20000;-74
2022/06/03 09:23:45;;;;;;;;;;;16.40;69.60;;;;;;5111626;27;19920;-74
2022/06/03 09:26:16;;;;;;;;;;;16.40;69.80;;;;;;5126560;27;19951;-74
2022/06/03 09:28:41;;;;;;;;;;;16.40;69.90;;;;;;5101253;28;20267;-74
2022/06/03 09:31:08;;;;;;;;;;;16.50;69.70;;;;;;5107942;28;19916;-74
2022/06/03 09:33:35;;;;;;;;;;;16.60;69.80;;;;;;5105455;28;19920;-74
2022/06/03 09:36:04;;;;;;;;;;;16.70;69.40;;;;;;5107579;28;19912;-74
2022/06/03 09:38:38;;;;;;;;;;;16.70;69.20;;;;;;5105210;28;19916;-74
2022/06/03 09:41:04;;;;;;;;;;;16.80;69.00;;;;;;5106421;28;19969;-74
2022/06/03 09:43:37;;;;;;;;;;;16.90;69.10;;;;;;5105136;28;20016;-74
2022/06/03 09:46:05;;;;;;;;;;;17.00;68.90;;;;;;5106014;28;19912;-75
2022/06/03 09:48:34;;;;;;;;;;;17.10;69.10;;;;;;5105596;27;19964;-74
2022/06/03 09:51:13;;;;;;;;;;;17.10;68.90;;;;;;5105899;28;19957;-75
2022/06/03 09:53:42;;;;;;;;;;;17.20;68.80;;;;;;5104979;28;19923;-75
2022/06/03 09:56:14;;;;;;;;;;;17.20;68.90;;;;;;5107464;28;19998;-75
2022/06/03 09:58:40;;;;;;;;;;;17.30;69.00;;;;;;5104890;27;19961;-75
2022/06/03 10:01:09;;;;;;;;;;;17.30;68.90;;;;;;5107544;28;19962;-75
2022/06/03 10:03:34;;;;;;;;;;;17.30;68.70;;;;;;5107878;27;19988;-74
2022/06/03 10:06:00;;;;;;;;;;;17.40;69.00;;;;;;5126920;27;19911;-74
2022/06/03 10:12:48;;;;;;;;;;;17.40;69.10;;;;;;5116214;27;20388;-74
2022/06/03 10:14:00;;;;;;;;;;;17.60;68.80;;;;;;5114120;27;19938;-74
2022/06/03 10:16:28;;;;;;;;;;;17.80;68.90;;;;;;5106273;28;20300;-75
2022/06/03 10:18:56;;;;;;;;;;;17.80;68.90;;;;;;5098441;28;19912;-74
2022/06/03 10:21:21;;;;;;;;;;;17.90;68.60;;;;;;5106121;28;19912;-74
2022/06/03 10:23:47;;;;;;;;;;;18.00;68.50;;;;;;5112820;27;19964;-74
2022/06/03 10:26:33;;;;;;;;;;;18.10;68.50;;;;;;5105472;27;19922;-74
2022/06/03 10:29:06;;;;;;;;;;;18.20;68.30;;;;;;5106660;28;19919;-74
2022/06/03 10:31:32;;;;;;;;;;;18.20;68.50;;;;;;5106412;28;19920;-74
2022/06/03 10:34:00;;;;;;;;;;;18.30;68.60;;;;;;5109471;27;20951;-74
2022/06/03 10:36:52;;;;;;;;;;;18.30;68.50;;;;;;5106089;27;20264;-74
2022/06/03 10:39:19;;;;;;;;;;;18.40;68.70;;;;;;5103192;28;19911;-75
2022/06/03 10:41:45;;;;;;;;;;;18.50;68.50;;;;;;5103511;28;19916;-74
2022/06/03 10:44:18;;;;;;;;;;;18.60;68.40;;;;;;5106359;28;19919;-74
2022/06/03 10:46:55;;;;;;;;;;;18.60;68.70;;;;;;5100879;28;19916;-74
2022/06/03 10:49:21;;;;;;;;;;;18.70;68.50;;;;;;5085595;28;19912;-74
2022/06/03 11:02:48;;;;;;;;;;;19.10;68.10;;;;;;5085377;28;19962;-74
2022/06/03 11:05:19;;;;;;;;;;;19.30;68.00;;;;;;5100547;28;20696;-74
2022/06/03 11:07:56;;;;;;;;;;;19.50;67.90;;;;;;5118438;27;19966;-74
2022/06/03 11:10:26;;;;;;;;;;;19.60;68.10;;;;;;5105595;27;19925;-74
2022/06/03 11:12:57;;;;;;;;;;;19.80;67.30;;;;;;5106305;27;19912;-74
2022/06/03 11:15:26;;;;;;;;;;;19.90;67.30;;;;;;5104905;28;19972;-74
2022/06/03 11:17:51;;;;;;;;;;;20.00;66.90;;;;;;5105321;27;20383;-74
2022/06/03 11:20:29;;;;;;;;;;;20.20;66.90;;;;;;5104930;27;19916;-74
2022/06/03 11:22:55;;;;;;;;;;;20.20;67.00;;;;;;5098939;28;19942;-74
2022/06/03 11:25:28;;;;;;;;;;;20.30;66.80;;;;;;5105560;27;19920;-74
2022/06/03 11:28:03;;;;;;;;;;;20.40;67.00;;;;;;5102096;28;19916;-73
2022/06/03 11:30:31;;;;;;;;;;;20.50;67.40;;;;;;5112299;27;20018;-73
2022/06/03 11:32:59;;;;;;;;;;;20.50;66.80;;;;;;5110368;27;19922;-74
2022/06/03 11:35:31;;;;;;;;;;;20.50;66.80;;;;;;5104983;28;19912;-74
2022/06/03 11:37:59;;;;;;;;;;;20.60;66.70;;;;;;5101476;28;19986;-74
2022/06/03 11:40:28;;;;;;;;;;;20.70;66.60;;;;;;5104663;28;19946;-73
2022/06/03 11:43:00;;;;;;;;;;;20.80;66.50;;;;;;5104993;28;20531;-74
2022/06/03 11:45:45;;;;;;;;;;;20.80;66.40;;;;;;5103852;28;19908;-74
2022/06/03 11:48:10;;;;;;;;;;;20.90;66.40;;;;;;5102010;28;19916;-73
2022/06/03 11:50:36;;;;;;;;;;;20.90;66.20;;;;;;5104489;28;19922;-74
2022/06/03 11:53:02;;;;;;;;;;;21.00;66.40;;;;;;5102585;28;19916;-73
2022/06/03 11:55:30;;;;;;;;;;;21.10;66.20;;;;;;5102071;28;19942;-73
2022/06/03 11:58:00;;;;;;;;;;;21.10;66.10;;;;;;5101881;28;19923;-74
2022/06/03 12:00:28;;;;;;;;;;;21.20;66.20;;;;;;5104277;28;20693;-74
2022/06/03 12:03:12;;;;;;;;;;;21.20;65.80;;;;;;5100551;28;19912;-73
2022/06/03 12:05:42;;;;;;;;;;;21.20;66.00;;;;;;5103116;28;19980;-73
2022/06/03 12:08:08;;;;;;;;;;;21.40;65.90;;;;;;5100423;28;20387;-73
2022/06/03 12:10:33;;;;;;;;;;;21.40;65.90;;;;;;5104519;28;19920;-74
2022/06/03 12:13:17;;;;;;;;;;;21.40;66.00;;;;;;5104325;28;19916;-73
2022/06/03 12:15:55;;;;;;;;;;;21.50;65.80;;;;;;5083833;28;19973;-73
2022/06/03 12:18:32;;;;;;;;;;;21.70;65.60;;;;;;5096429;28;20007;-73
2022/06/03 12:21:03;;;;;;;;;;;21.80;65.30;;;;;;5113031;27;19919;-73
2022/06/03 12:23:28;;;;;;;;;;;21.90;65.00;;;;;;5120308;27;19923;-73
2022/06/03 12:25:57;;;;;;;;;;;22.10;65.40;;;;;;5102865;28;19920;-73
2022/06/03 12:28:25;;;;;;;;;;;22.20;64.90;;;;;;5103837;28;19915;-72
2022/06/03 12:30:53;;;;;;;;;;;22.30;64.40;;;;;;5101170;28;19920;-73
2022/06/03 12:33:20;;;;;;;;;;;22.40;64.90;;;;;;5104387;28;19924;-73
2022/06/03 12:36:00;;;;;;;;;;;22.50;64.30;;;;;;5101480;28;19912;-73
2022/06/03 12:38:27;;;;;;;;;;;22.70;64.30;;;;;;5104287;28;19912;-73
2022/06/03 12:40:54;;;;;;;;;;;22.70;64.10;;;;;;5101806;28;19923;-73
2022/06/03 12:43:22;;;;;;;;;;;22.80;64.30;;;;;;5104297;28;19912;-73
2022/06/03 12:46:08;;;;;;;;;;;22.80;64.50;;;;;;5102319;28;19969;-73
2022/06/03 12:48:43;;;;;;;;;;;22.80;64.90;;;;;;5104560;28;19915;-73
2022/06/03 12:51:17;;;;;;;;;;;22.90;64.40;;;;;;5108178;27;19930;-73
2022/06/03 12:53:44;;;;;;;;;;;22.90;64.30;;;;;;5122155;27;19908;-73
2022/06/03 12:56:12;;;;;;;;;;;23.00;64.30;;;;;;5109160;27;19965;-73
2022/06/03 12:58:56;;;;;;;;;;;23.10;64.10;;;;;;5106552;28;19939;-73
2022/06/03 13:01:36;;;;;;;;;;;23.20;64.10;;;;;;5106232;27;19916;-73
2022/06/03 13:04:20;;;;;;;;;;;23.30;64.30;;;;;;5107837;28;19912;-73
2022/06/03 13:07:04;;;;;;;;;;;23.30;63.80;;;;;;5105156;28;19968;-73
2022/06/03 13:09:49;;;;;;;;;;;23.40;63.80;;;;;;5107078;28;20271;-74
2022/06/03 13:12:28;;;;;;;;;;;23.40;64.20;;;;;;5105190;27;19919;-73
2022/06/03 13:14:53;;;;;;;;;;;23.50;63.50;;;;;;5135173;27;19916;-73
2022/06/03 13:17:37;;;;;;;;;;;23.60;63.20;;;;;;5104475;27;19949;-73
2022/06/03 13:20:03;;;;;;;;;;;23.70;63.30;;;;;;5112807;27;19915;-73
2022/06/03 13:22:42;;;;;;;;;;;23.70;63.60;;;;;;5110036;27;20499;-73
2022/06/03 13:25:16;;;;;;;;;;;23.70;63.20;;;;;;5106972;27;20459;-73
2022/06/03 13:28:01;;;;;;;;;;;23.80;63.30;;;;;;5103558;28;19923;-73
2022/06/03 13:30:37;;;;;;;;;;;23.90;63.30;;;;;;5111038;27;20018;-73
2022/06/03 13:33:15;;;;;;;;;;;24.00;63.20;;;;;;5109576;27;20471;-73
2022/06/03 13:35:58;;;;;;;;;;;24.10;63.00;;;;;;5106583;28;20023;-73
2022/06/03 13:38:27;;;;;;;;;;;24.20;63.00;;;;;;5103276;27;19923;-73
2022/06/03 13:44:03;;;;;;;;;;;24.30;62.10;;;;;;5107409;28;20032;-73
2022/06/03 13:46:30;;;;;;;;;;;24.50;62.30;;;;;;5107990;28;19918;-73
2022/06/03 13:48:58;;;;;;;;;;;24.60;62.70;;;;;;5104245;28;19955;-72
2022/06/03 13:51:30;;;;;;;;;;;24.70;62.40;;;;;;5107844;28;20470;-73
2022/06/03 13:53:57;;;;;;;;;;;24.70;62.20;;;;;;5104756;27;19947;-72
2022/06/03 13:56:24;;;;;;;;;;;24.80;62.00;;;;;;5103316;28;20245;-72
2022/06/03 13:58:50;;;;;;;;;;;24.90;61.80;;;;;;5105146;28;19916;-73
2022/06/03 14:01:42;;;;;;;;;;;25.00;61.80;;;;;;5107336;28;20535;-73
2022/06/03 14:04:14;;;;;;;;;;;25.00;61.80;;;;;;5114168;27;19919;-73
2022/06/03 14:06:52;;;;;;;;;;;24.90;61.90;;;;;;5101732;28;20518;-73
2022/06/03 14:09:23;;;;;;;;;;;25.00;62.20;;;;;;5105693;27;20119;-73
2022/06/03 14:11:55;;;;;;;;;;;24.90;61.90;;;;;;5112751;27;20376;-73
2022/06/03 14:14:24;;;;;;;;;;;24.90;62.10;;;;;;5106414;27;19941;-73
2022/06/03 14:16:49;;;;;;;;;;;24.90;62.30;;;;;;5103742;28;19912;-73
2022/06/03 14:19:45;;;;;;;;;;;24.90;62.20;;;;;;5095490;28;20658;-73
2022/06/03 14:22:15;;;;;;;;;;;24.90;62.10;;;;;;5087667;27;19913;-73
2022/06/03 14:24:48;;;;;;;;;;;24.80;62.40;;;;;;5104155;27;20349;-73
2022/06/03 14:27:15;;;;;;;;;;;24.80;62.10;;;;;;5106793;27;19986;-73
2022/06/03 14:29:54;;;;;;;;;;;24.80;62.40;;;;;;5104175;27;19972;-73
2022/06/03 14:32:20;;;;;;;;;;;24.80;63.30;;;;;;5116409;27;20016;-73
2022/06/03 14:34:46;;;;;;;;;;;24.80;62.40;;;;;;5103712;28;19922;-73
2022/06/03 14:37:20;;;;;;;;;;;24.70;62.60;;;;;;5106343;28;19916;-73
2022/06/03 14:39:47;;;;;;;;;;;24.70;62.70;;;;;;5104585;28;20307;-73
2022/06/03 14:42:16;;;;;;;;;;;24.70;63.10;;;;;;5106042;28;19912;-73
2022/06/03 14:44:44;;;;;;;;;;;24.60;63.20;;;;;;5104334;28;19916;-73
2022/06/03 14:47:16;;;;;;;;;;;24.60;63.30;;;;;;5106384;28;20448;-73
2022/06/03 14:50:00;;;;;;;;;;;24.60;63.10;;;;;;5104176;28;19926;-73
2022/06/03 14:52:33;;;;;;;;;;;24.50;62.90;;;;;;5106512;28;19934;-73
2022/06/03 14:55:11;;;;;;;;;;;24.50;62.50;;;;;;5103891;28;19916;-73
2022/06/03 14:57:39;;;;;;;;;;;24.50;63.20;;;;;;5105982;28;19947;-73
2022/06/03 15:00:12;;;;;;;;;;;24.50;63.00;;;;;;5107554;27;20412;-73
2022/06/03 15:02:47;;;;;;;;;;;24.50;63.40;;;;;;5127116;27;19911;-73
2022/06/03 15:05:15;;;;;;;;;;;24.50;63.40;;;;;;5119648;27;19916;-73
2022/06/03 15:07:43;;;;;;;;;;;24.50;63.40;;;;;;5105773;28;19951;-73
2022/06/03 15:10:11;;;;;;;;;;;24.60;63.00;;;;;;5102415;27;20002;-73
2022/06/03 15:12:36;;;;;;;;;;;24.70;62.40;;;;;;5108966;27;19916;-73
2022/06/03 15:15:03;;;;;;;;;;;24.90;62.30;;;;;;5120295;27;19981;-73
2022/06/03 15:17:36;;;;;;;;;;;25.00;62.30;;;;;;5104253;28;20408;-73
2022/06/03 15:20:07;;;;;;;;;;;25.10;61.90;;;;;;5112281;27;19915;-72
2022/06/03 15:22:38;;;;;;;;;;;25.20;62.00;;;;;;5122937;27;19911;-73